Impacts METAR Board
IDs:

KIAD - Washington/Dulles In, VA, US

Updated at: 0500 UTC 28 Sep 2022
Potential Impact None Slight Moderate High
Time 27/17Z 27/18Z 27/19Z 27/20Z 27/21Z 27/22Z 27/23Z 28/00Z 28/01Z 28/02Z 28/03Z 28/04Z 28/05Z
Temp70 68 69 70 70 67 63 62 59 58 56 53 54
Dewpt39 40 39 40 38 39 40 40 42 41 42 41 40
Altim29.94 29.94 29.92 29.93 29.95 29.97 29.98 30.01 30.04 30.07 30.08 30.09 30.09
VIS10 10 10 10 10 10 10 10 10 10 10 10 10
CIG80 90 -- 80 100 110 110 110 -- -- -- -- --
CoverBKNBKNSCTBKNBKNBKNBKNBKNFEWFEWSCTFEWCLR
FltCatVFRVFRVFRVFRVFRVFRVFRVFRVFRVFRVFRVFRVFR
WX--------------------------
WDir280290300300300290300300320310310300280
WSpd13 11 11 11 8 13 11 14 8 9 6 7 6
WGst22 -- 19 -- 18 -- -- -- -- -- -- -- --
Raw hourly METARs
KIAD 271652Z 28013G22KT 10SM BKN080 BKN180 21/04 A2994 RMK AO2 SLP137 T02110039
KIAD 271752Z 29011KT 10SM BKN090 BKN160 20/04 A2994 RMK AO2 SLP136 T02000044 10217 20150 56001
KIAD 271852Z 30011G19KT 10SM SCT070 SCT085 21/04 A2992 RMK AO2 SLP131 T02060039
KIAD 271952Z 30011KT 10SM FEW055 BKN080 21/04 A2993 RMK AO2 SLP133 T02110044
KIAD 272052Z 30008G18KT 10SM FEW070 BKN100 21/03 A2995 RMK AO2 SLP139 T02110033 53002
KIAD 272152Z 29013KT 10SM FEW070 BKN110 19/04 A2997 RMK AO2 SLP145 T01940039
KIAD 272252Z 30011KT 10SM FEW070 BKN110 17/04 A2998 RMK AO2 SLP152 T01720044
KIAD 272352Z 30014KT 10SM FEW075 BKN110 17/04 A3001 RMK AO2 SLP162 T01670044 10228 20167 53022
KIAD 280052Z 32008KT 10SM FEW120 15/06 A3004 RMK AO2 SLP173 T01500056
KIAD 280152Z 31009KT 10SM FEW120 14/05 A3007 RMK AO2 SLP179 T01440050
KIAD 280252Z 31006KT 10SM SCT100 13/06 A3008 RMK AO2 SLP185 T01330056 51023
KIAD 280352Z 30007KT 10SM FEW100 12/05 A3009 RMK AO2 SLP189 T01170050
KIAD 280452Z AUTO 28006KT 10SM CLR 12/04 A3009 RMK AO2 SLP189 T01220044 402280106 $



Page loaded:  05:53 UTC  |   10:53 PM Pacific  |   11:53 PM Mountain  |   12:53 AM Central  |   01:53 AM Eastern

 

ADVISORIES

FORECASTS

FORECASTS

OBSERVATIONS

USER TOOLS

ABOUT US